createdAt,value
2018-07-27T00:00:29.644Z,52.70
2018-07-27T00:01:33.733Z,52.80
2018-07-27T00:02:37.796Z,52.70
2018-07-27T00:03:41.990Z,52.70
2018-07-27T00:04:46.105Z,52.80
2018-07-27T00:05:50.174Z,53.00
2018-07-27T00:06:54.204Z,53.10
2018-07-27T00:07:58.310Z,53.20
2018-07-27T00:09:02.392Z,53.10
2018-07-27T00:10:06.659Z,53.20
2018-07-27T00:11:10.809Z,53.30
2018-07-27T00:12:14.836Z,53.40
2018-07-27T00:13:18.935Z,53.40
2018-07-27T00:14:23.050Z,53.30
2018-07-27T00:15:27.105Z,53.30
2018-07-27T00:17:34.880Z,53.40
2018-07-27T00:18:38.989Z,53.50
2018-07-27T00:19:43.007Z,53.40
2018-07-27T00:20:47.143Z,53.40
2018-07-27T00:21:51.300Z,53.40
2018-07-27T00:22:55.368Z,53.50
2018-07-27T00:23:59.609Z,53.50
2018-07-27T00:25:03.696Z,53.50
2018-07-27T00:26:07.814Z,53.50
2018-07-27T00:27:11.854Z,53.50
2018-07-27T00:28:15.903Z,53.60
2018-07-27T00:29:20.034Z,53.60
2018-07-27T00:30:24.148Z,53.70
2018-07-27T00:31:28.232Z,53.90
2018-07-27T00:32:32.363Z,53.90
2018-07-27T00:33:36.460Z,53.90
2018-07-27T00:34:40.544Z,53.80
2018-07-27T00:35:44.639Z,54.00
2018-07-27T00:36:48.709Z,54.00
2018-07-27T00:37:52.785Z,54.00
2018-07-27T00:38:56.875Z,54.00
2018-07-27T00:40:00.923Z,54.00
2018-07-27T00:41:05.060Z,54.20
2018-07-27T00:42:09.133Z,54.30
2018-07-27T00:43:13.204Z,54.40
2018-07-27T00:44:17.274Z,54.30
2018-07-27T00:45:21.362Z,54.50
2018-07-27T00:46:25.340Z,54.70
2018-07-27T00:47:29.408Z,54.50
2018-07-27T00:48:33.474Z,54.50
2018-07-27T00:49:37.804Z,54.50
2018-07-27T00:50:41.996Z,54.50
2018-07-27T00:51:46.091Z,54.50
2018-07-27T00:52:50.219Z,54.60
2018-07-27T00:53:54.281Z,54.50
2018-07-27T00:54:58.317Z,54.60
2018-07-27T00:57:06.281Z,54.70
2018-07-27T00:58:10.359Z,54.70
2018-07-27T00:59:14.600Z,54.80
2018-07-27T01:00:19.281Z,54.70
2018-07-27T01:01:23.357Z,54.80
2018-07-27T01:02:27.536Z,54.80
2018-07-27T01:03:31.598Z,54.80
2018-07-27T01:04:35.662Z,54.80
2018-07-27T01:05:39.757Z,54.80
2018-07-27T01:06:43.822Z,54.90
2018-07-27T01:07:47.939Z,55.10
2018-07-27T01:08:52.000Z,55.10
2018-07-27T01:09:56.104Z,55.10
2018-07-27T01:11:00.167Z,55.10
2018-07-27T01:13:08.062Z,55.20
2018-07-27T01:14:12.123Z,55.20
2018-07-27T01:15:16.200Z,55.40
2018-07-27T01:16:20.265Z,55.30
2018-07-27T01:17:24.344Z,55.30
2018-07-27T01:18:28.470Z,55.40
2018-07-27T01:20:36.245Z,55.70
2018-07-27T01:21:40.388Z,55.60
2018-07-27T01:22:44.450Z,55.60
2018-07-27T01:23:48.588Z,55.70
2018-07-27T01:24:53.353Z,55.70
2018-07-27T01:25:57.438Z,55.80
2018-07-27T01:27:01.540Z,55.80
2018-07-27T01:28:05.636Z,55.90
2018-07-27T01:29:09.700Z,56.00
2018-07-27T01:30:13.787Z,55.90
2018-07-27T01:31:17.865Z,56.00
2018-07-27T01:32:21.918Z,56.70
2018-07-27T01:33:25.968Z,56.10
2018-07-27T01:34:36.056Z,56.40
2018-07-27T01:35:46.090Z,56.20
2018-07-27T01:36:50.259Z,56.10
2018-07-27T01:37:54.343Z,56.20
2018-07-27T01:38:58.433Z,56.20
2018-07-27T01:40:02.695Z,56.40
2018-07-27T01:41:06.805Z,56.30
2018-07-27T01:43:21.227Z,56.40
2018-07-27T01:44:25.361Z,56.40
2018-07-27T01:45:29.397Z,56.50
2018-07-27T01:46:33.519Z,56.60
2018-07-27T01:47:37.599Z,56.60
2018-07-27T01:48:41.616Z,56.60
2018-07-27T01:49:45.787Z,56.60
2018-07-27T01:50:49.838Z,56.70
2018-07-27T01:51:53.933Z,56.70
2018-07-27T01:52:58.009Z,56.80
2018-07-27T01:54:02.117Z,56.80
2018-07-27T01:55:06.421Z,56.80
2018-07-27T01:56:10.449Z,57.70
2018-07-27T01:57:14.571Z,57.10
2018-07-27T01:58:18.688Z,57.10
2018-07-27T01:59:22.746Z,57.20
2018-07-27T02:00:26.788Z,57.20
2018-07-27T02:01:30.853Z,57.20
2018-07-27T02:02:34.964Z,57.20
2018-07-27T02:03:38.985Z,57.20
2018-07-27T02:04:43.042Z,57.30
2018-07-27T02:05:47.101Z,57.30
2018-07-27T02:06:51.117Z,57.50
2018-07-27T02:07:55.180Z,57.60
2018-07-27T02:08:59.299Z,57.60
2018-07-27T02:10:03.373Z,57.60
2018-07-27T02:12:11.081Z,57.80
2018-07-27T02:13:15.138Z,57.80
2018-07-27T02:14:19.221Z,57.80
2018-07-27T02:15:23.310Z,57.90
2018-07-27T02:16:27.388Z,57.90
2018-07-27T02:17:31.498Z,58.10
2018-07-27T02:18:35.620Z,58.00
2018-07-27T02:19:39.641Z,58.10
2018-07-27T02:20:43.706Z,58.10
2018-07-27T02:21:47.817Z,58.20
2018-07-27T02:22:51.931Z,58.20
2018-07-27T02:23:56.031Z,58.20
2018-07-27T02:25:00.156Z,58.30
2018-07-27T02:26:04.238Z,58.30
2018-07-27T02:27:08.291Z,58.30
2018-07-27T02:28:12.344Z,58.30
2018-07-27T02:29:16.341Z,58.40
2018-07-27T02:30:20.412Z,58.50
2018-07-27T02:31:24.419Z,58.40
2018-07-27T02:32:28.516Z,58.50
2018-07-27T02:33:32.607Z,58.60
2018-07-27T02:34:36.639Z,58.70
2018-07-27T02:35:40.770Z,58.70
2018-07-27T02:36:45.220Z,58.70
2018-07-27T02:38:52.894Z,59.40
2018-07-27T02:39:57.019Z,59.00
2018-07-27T02:41:01.015Z,58.90
2018-07-27T02:42:05.196Z,59.00
2018-07-27T02:43:09.302Z,58.90
2018-07-27T02:44:13.340Z,59.10
2018-07-27T02:45:17.434Z,59.20
2018-07-27T02:46:21.496Z,59.80
2018-07-27T02:47:25.590Z,59.20
2018-07-27T02:48:29.728Z,59.20
2018-07-27T02:49:33.902Z,59.10
2018-07-27T02:50:38.046Z,59.10
2018-07-27T02:51:42.112Z,59.10
2018-07-27T02:52:46.370Z,59.20
2018-07-27T02:53:50.389Z,59.20
2018-07-27T02:54:54.505Z,59.30
2018-07-27T02:55:58.575Z,59.40
2018-07-27T02:57:02.689Z,59.60
2018-07-27T02:58:06.694Z,59.60
2018-07-27T02:59:10.756Z,59.50
2018-07-27T03:00:14.866Z,59.60
2018-07-27T03:01:19.006Z,59.50
2018-07-27T03:02:23.122Z,59.60
2018-07-27T03:03:27.206Z,59.80
2018-07-27T03:05:34.999Z,59.80
2018-07-27T03:06:39.097Z,59.90
2018-07-27T03:07:43.152Z,59.90
2018-07-27T03:08:47.198Z,60.00
2018-07-27T03:09:51.331Z,60.10
2018-07-27T03:10:55.376Z,60.20
2018-07-27T03:12:00.314Z,60.20
2018-07-27T03:13:04.428Z,60.20
2018-07-27T03:14:08.726Z,60.40
2018-07-27T03:15:12.772Z,60.40
2018-07-27T03:16:16.857Z,60.40
2018-07-27T03:17:20.973Z,60.40
2018-07-27T03:18:25.070Z,60.40
2018-07-27T03:19:29.209Z,60.50
2018-07-27T03:20:33.262Z,60.40
2018-07-27T03:22:40.968Z,60.50
2018-07-27T03:23:44.993Z,60.70
2018-07-27T03:24:49.388Z,60.70
2018-07-27T03:25:53.487Z,60.60
2018-07-27T03:26:57.529Z,60.70
2018-07-27T03:28:01.549Z,60.70
2018-07-27T03:29:05.941Z,60.80
2018-07-27T03:30:10.012Z,60.80
2018-07-27T03:31:14.102Z,60.90
2018-07-27T03:32:18.133Z,61.10
2018-07-27T03:33:22.237Z,61.20
2018-07-27T03:34:26.318Z,61.20
2018-07-27T03:35:30.347Z,61.20
2018-07-27T03:36:34.488Z,61.20
2018-07-27T03:38:42.216Z,61.50
2018-07-27T03:39:46.709Z,61.40
2018-07-27T03:40:50.923Z,61.40
2018-07-27T03:42:58.804Z,61.10
2018-07-27T03:44:03.242Z,61.60
2018-07-27T03:45:07.358Z,61.70
2018-07-27T03:46:11.405Z,61.70
2018-07-27T03:47:15.454Z,61.90
2018-07-27T03:48:19.475Z,61.90
2018-07-27T03:49:23.540Z,62.00
2018-07-27T03:50:27.709Z,62.00
2018-07-27T03:51:31.751Z,62.10
2018-07-27T03:52:35.875Z,62.10
2018-07-27T03:53:39.954Z,62.00
2018-07-27T03:54:44.000Z,62.10
2018-07-27T03:55:48.086Z,62.20
2018-07-27T03:56:52.211Z,62.20
2018-07-27T03:57:56.323Z,62.30
2018-07-27T03:59:00.347Z,62.40
2018-07-27T04:00:06.395Z,62.60
2018-07-27T04:01:10.485Z,62.70
2018-07-27T04:02:14.586Z,63.50
2018-07-27T04:03:18.565Z,62.60
2018-07-27T04:04:22.667Z,62.60
2018-07-27T04:05:27.322Z,62.60
2018-07-27T04:06:31.347Z,62.60
2018-07-27T04:08:39.607Z,62.80
2018-07-27T04:09:43.611Z,62.90
2018-07-27T04:10:47.739Z,62.90
2018-07-27T04:11:51.816Z,62.90
2018-07-27T04:12:55.900Z,62.90
2018-07-27T04:13:59.993Z,63.00
2018-07-27T04:15:04.916Z,63.00
2018-07-27T04:16:08.996Z,63.00
2018-07-27T04:17:13.088Z,63.00
2018-07-27T04:18:17.126Z,63.10
2018-07-27T04:19:21.201Z,63.10
2018-07-27T04:20:25.237Z,63.10
2018-07-27T04:21:29.305Z,63.10
2018-07-27T04:22:33.460Z,63.30
2018-07-27T04:23:37.561Z,63.30
2018-07-27T04:24:41.675Z,63.30
2018-07-27T04:25:45.761Z,63.30
2018-07-27T04:26:49.779Z,63.40
2018-07-27T04:27:53.818Z,63.40
2018-07-27T04:28:57.814Z,63.40
2018-07-27T04:30:01.864Z,63.60
2018-07-27T04:31:05.918Z,63.70
2018-07-27T04:32:09.993Z,63.80
2018-07-27T04:33:14.019Z,63.80
2018-07-27T04:35:21.777Z,63.80
2018-07-27T04:36:25.894Z,64.10
2018-07-27T04:37:29.958Z,63.90
2018-07-27T04:38:34.096Z,63.80
2018-07-27T04:39:38.084Z,63.90
2018-07-27T04:40:42.153Z,63.80
2018-07-27T04:41:46.232Z,63.80
2018-07-27T04:42:50.418Z,63.90
2018-07-27T04:43:54.424Z,63.90
2018-07-27T04:44:58.471Z,64.00
2018-07-27T04:46:02.917Z,64.10
2018-07-27T04:47:07.017Z,64.10
2018-07-27T04:48:11.131Z,64.20
2018-07-27T04:49:15.156Z,65.20
2018-07-27T04:50:19.222Z,64.30
2018-07-27T04:51:23.267Z,64.30
2018-07-27T04:52:27.669Z,64.30
2018-07-27T04:53:31.743Z,64.30
2018-07-27T04:54:35.781Z,64.30
2018-07-27T04:55:39.894Z,64.30
2018-07-27T04:56:44.109Z,64.30
2018-07-27T04:57:48.100Z,64.30
2018-07-27T04:58:52.437Z,64.30
2018-07-27T04:59:56.480Z,64.40
2018-07-27T05:01:00.569Z,64.50
2018-07-27T05:02:04.751Z,64.50
2018-07-27T05:03:08.832Z,64.70
2018-07-27T05:04:12.957Z,64.60
2018-07-27T05:05:16.999Z,64.70
2018-07-27T05:06:21.063Z,65.30
2018-07-27T05:07:25.133Z,64.60
2018-07-27T05:08:29.210Z,64.60
2018-07-27T05:09:33.320Z,64.60
2018-07-27T05:10:42.971Z,64.70
2018-07-27T05:11:47.041Z,64.70
2018-07-27T05:12:51.609Z,64.70
2018-07-27T05:13:55.685Z,64.70
2018-07-27T05:14:59.773Z,64.80
2018-07-27T05:16:03.901Z,64.80
2018-07-27T05:17:07.961Z,64.80
2018-07-27T05:18:12.184Z,64.80
2018-07-27T05:19:16.188Z,64.90
2018-07-27T05:20:20.276Z,64.90
2018-07-27T05:21:24.300Z,64.80
2018-07-27T05:22:28.417Z,64.90
2018-07-27T05:23:32.470Z,64.90
2018-07-27T05:24:38.024Z,64.90
2018-07-27T05:25:42.374Z,64.80
2018-07-27T05:26:46.452Z,64.80
2018-07-27T05:27:50.520Z,64.80
2018-07-27T05:28:54.524Z,65.50
2018-07-27T05:29:58.633Z,64.80
2018-07-27T05:31:02.724Z,64.80
2018-07-27T05:32:07.032Z,64.80
2018-07-27T05:33:11.098Z,64.90
2018-07-27T05:35:18.860Z,64.90
2018-07-27T05:36:22.982Z,64.90
2018-07-27T05:37:27.055Z,64.90
2018-07-27T05:38:31.132Z,64.80
2018-07-27T05:39:35.293Z,64.80
2018-07-27T05:40:39.399Z,64.80
2018-07-27T05:42:47.200Z,64.80
2018-07-27T05:43:51.279Z,64.70
2018-07-27T05:44:55.429Z,64.80
2018-07-27T05:45:59.441Z,64.80
2018-07-27T05:47:03.656Z,64.80
2018-07-27T05:48:07.637Z,64.90
2018-07-27T05:49:11.698Z,65.00
2018-07-27T05:50:15.738Z,64.90
2018-07-27T05:51:19.832Z,64.90
2018-07-27T05:52:23.847Z,64.80
2018-07-27T05:53:27.932Z,64.80
2018-07-27T05:54:32.016Z,64.80
2018-07-27T05:55:36.183Z,64.80
2018-07-27T05:56:40.259Z,64.70
2018-07-27T05:57:44.332Z,64.60
2018-07-27T05:58:48.468Z,64.60
2018-07-27T05:59:52.545Z,64.50
2018-07-27T06:00:56.716Z,64.60
2018-07-27T06:02:00.746Z,64.60
2018-07-27T06:04:09.110Z,64.90
2018-07-27T06:05:13.147Z,64.40
2018-07-27T06:06:17.235Z,64.40
2018-07-27T06:07:21.349Z,64.30
2018-07-27T06:09:29.109Z,64.30
2018-07-27T06:10:33.325Z,63.60
2018-07-27T06:12:41.074Z,64.40
2018-07-27T06:13:45.093Z,64.30
2018-07-27T06:14:49.197Z,64.30
2018-07-27T06:15:53.511Z,64.10
2018-07-27T06:16:57.685Z,64.10
2018-07-27T06:18:01.893Z,64.20
2018-07-27T06:19:05.964Z,64.10
2018-07-27T06:20:10.175Z,64.10
2018-07-27T06:21:14.295Z,64.10
2018-07-27T06:22:21.360Z,64.00
2018-07-27T06:23:25.503Z,64.00
2018-07-27T06:24:50.976Z,64.00
2018-07-27T06:25:55.062Z,63.90
2018-07-27T06:26:59.117Z,63.70
2018-07-27T06:28:03.221Z,63.70
2018-07-27T06:30:10.978Z,63.90
2018-07-27T06:32:19.163Z,63.50
2018-07-27T06:33:23.473Z,63.50
2018-07-27T06:34:27.554Z,63.60
2018-07-27T06:35:31.560Z,63.60
2018-07-27T06:36:35.568Z,63.50
2018-07-27T06:37:39.657Z,63.50
2018-07-27T06:38:43.693Z,63.40
2018-07-27T06:39:47.860Z,63.40
2018-07-27T06:40:51.993Z,63.20
2018-07-27T06:41:56.063Z,63.20
2018-07-27T06:43:00.117Z,63.10
2018-07-27T06:44:04.143Z,63.10
2018-07-27T06:45:08.184Z,63.00
2018-07-27T06:46:12.230Z,62.90
2018-07-27T06:47:16.308Z,63.00
2018-07-27T06:48:20.904Z,62.90
2018-07-27T06:49:25.022Z,62.90
2018-07-27T06:51:32.749Z,63.50
2018-07-27T06:52:36.868Z,63.00
2018-07-27T06:53:40.988Z,63.10
2018-07-27T06:54:45.126Z,63.10
2018-07-27T06:55:49.289Z,63.10
2018-07-27T06:56:53.318Z,63.10
2018-07-27T06:57:57.451Z,63.00
2018-07-27T06:59:01.566Z,63.00
2018-07-27T07:01:09.544Z,62.90
2018-07-27T07:02:13.601Z,62.80
2018-07-27T07:03:17.682Z,62.60
2018-07-27T07:04:21.791Z,62.50
2018-07-27T07:05:25.885Z,62.50
2018-07-27T07:06:29.932Z,62.40
2018-07-27T07:07:34.008Z,62.30
2018-07-27T07:08:38.119Z,62.20
2018-07-27T07:09:42.234Z,62.20
2018-07-27T07:10:46.474Z,62.20
2018-07-27T07:12:54.430Z,62.50
2018-07-27T07:13:58.625Z,62.10
2018-07-27T07:15:02.638Z,62.10
2018-07-27T07:16:06.717Z,62.00
2018-07-27T07:17:10.865Z,61.80
2018-07-27T07:18:14.932Z,61.90
2018-07-27T07:19:19.088Z,61.90
2018-07-27T07:20:23.366Z,61.70
2018-07-27T07:21:27.711Z,61.60
2018-07-27T07:22:31.817Z,61.50
2018-07-27T07:24:39.544Z,60.80
2018-07-27T07:25:43.774Z,61.40
2018-07-27T07:26:47.758Z,61.20
2018-07-27T07:27:52.198Z,61.00
2018-07-27T07:28:56.636Z,60.90
2018-07-27T07:30:00.712Z,60.80
2018-07-27T07:31:04.774Z,60.80
2018-07-27T07:32:08.813Z,61.00
2018-07-27T07:33:13.040Z,60.90
2018-07-27T07:34:17.029Z,60.90
2018-07-27T07:35:21.069Z,60.80
2018-07-27T07:36:25.151Z,60.80
2018-07-27T07:37:29.252Z,60.60
2018-07-27T07:38:33.367Z,60.60
2018-07-27T07:39:37.431Z,60.50
2018-07-27T07:40:41.534Z,60.50
2018-07-27T07:41:45.642Z,60.40
2018-07-27T07:42:49.696Z,60.30
2018-07-27T07:43:53.825Z,60.20
2018-07-27T07:44:57.936Z,60.30
2018-07-27T07:46:01.914Z,60.30
2018-07-27T07:47:05.996Z,60.30
2018-07-27T07:48:10.099Z,60.20
2018-07-27T07:49:14.165Z,60.20
2018-07-27T07:50:18.233Z,60.10
2018-07-27T07:51:22.341Z,60.10
2018-07-27T07:52:26.517Z,60.00
2018-07-27T07:53:30.627Z,60.00
2018-07-27T07:54:34.768Z,59.90
2018-07-27T07:55:39.089Z,59.70
2018-07-27T07:56:43.159Z,59.50
2018-07-27T07:57:47.213Z,59.50
2018-07-27T07:58:51.280Z,59.30
2018-07-27T07:59:55.344Z,59.90
2018-07-27T08:00:59.434Z,59.20
2018-07-27T08:02:03.619Z,59.20
2018-07-27T08:03:07.702Z,59.20
2018-07-27T08:04:11.772Z,59.10
2018-07-27T08:05:15.913Z,58.90
2018-07-27T08:06:20.057Z,58.70
2018-07-27T08:07:24.176Z,58.50
2018-07-27T08:08:28.255Z,58.40
2018-07-27T08:09:32.359Z,58.40
2018-07-27T08:10:36.465Z,59.00
2018-07-27T08:11:40.560Z,58.20
2018-07-27T08:12:44.688Z,58.70
2018-07-27T08:13:48.841Z,58.00
2018-07-27T08:14:52.877Z,58.00
2018-07-27T08:17:00.629Z,57.80
2018-07-27T08:18:04.901Z,57.70
2018-07-27T08:19:09.146Z,57.50
2018-07-27T08:20:13.222Z,57.50
2018-07-27T08:21:22.447Z,57.30
2018-07-27T08:22:26.581Z,57.30
2018-07-27T08:23:30.645Z,57.30
2018-07-27T08:24:34.845Z,57.20
2018-07-27T08:26:56.048Z,57.10
2018-07-27T08:28:11.395Z,56.90
2018-07-27T08:29:16.864Z,56.80
2018-07-27T08:30:21.147Z,56.70
2018-07-27T08:31:25.241Z,56.70
2018-07-27T08:32:29.310Z,56.60
2018-07-27T08:33:33.607Z,56.50
2018-07-27T08:34:37.879Z,56.40
2018-07-27T08:35:41.939Z,56.20
2018-07-27T08:36:46.378Z,56.00
2018-07-27T08:37:50.483Z,56.00
2018-07-27T08:38:54.538Z,56.00
2018-07-27T08:39:58.707Z,55.90
2018-07-27T08:42:06.467Z,55.70
2018-07-27T08:43:10.559Z,55.60
2018-07-27T08:44:15.940Z,55.50
2018-07-27T08:45:20.098Z,55.40
2018-07-27T08:46:24.243Z,55.20
2018-07-27T08:47:28.285Z,55.10
2018-07-27T08:48:32.408Z,55.00
2018-07-27T08:49:36.491Z,54.80
2018-07-27T08:50:40.548Z,54.70
2018-07-27T08:51:44.628Z,54.40
2018-07-27T08:52:48.720Z,54.10
2018-07-27T08:53:53.281Z,54.00
2018-07-27T08:54:57.350Z,53.80
2018-07-27T08:56:01.457Z,53.70
2018-07-27T08:57:05.584Z,53.40
2018-07-27T08:58:09.624Z,53.20
2018-07-27T08:59:13.693Z,53.00
2018-07-27T09:00:18.181Z,53.00
2018-07-27T09:01:22.386Z,53.00
2018-07-27T09:02:26.473Z,52.90
2018-07-27T09:03:30.619Z,52.90
2018-07-27T09:04:34.719Z,52.80
2018-07-27T09:05:38.742Z,53.10
2018-07-27T09:06:42.918Z,52.70
2018-07-27T09:07:46.979Z,52.70
2018-07-27T09:08:51.445Z,52.60
2018-07-27T09:09:55.544Z,52.50
2018-07-27T09:10:59.585Z,52.40
2018-07-27T09:12:03.887Z,53.00
2018-07-27T09:13:08.055Z,52.30
2018-07-27T09:14:12.190Z,52.10
2018-07-27T09:15:16.242Z,52.50
2018-07-27T09:16:20.665Z,52.50
2018-07-27T09:17:24.826Z,51.80
2018-07-27T09:18:28.890Z,51.60
2018-07-27T09:19:32.937Z,51.40
2018-07-27T09:20:37.111Z,51.10
2018-07-27T09:21:42.780Z,51.00
2018-07-27T09:22:46.858Z,50.90
2018-07-27T09:23:50.936Z,50.90
2018-07-27T09:24:55.212Z,50.80
2018-07-27T09:25:59.152Z,50.70
2018-07-27T09:27:03.304Z,50.50
2018-07-27T09:28:13.790Z,50.40
2018-07-27T09:29:17.919Z,50.30
2018-07-27T09:30:22.113Z,50.30
2018-07-27T09:31:26.326Z,50.10
2018-07-27T09:32:30.429Z,50.10
2018-07-27T09:33:34.679Z,49.90
2018-07-27T09:34:38.814Z,49.80
2018-07-27T09:35:42.942Z,49.60
2018-07-27T09:36:47.007Z,49.30
2018-07-27T09:38:54.798Z,48.80
2018-07-27T09:39:58.958Z,48.70
2018-07-27T09:41:03.009Z,48.70
2018-07-27T09:42:07.107Z,48.60
2018-07-27T09:43:11.466Z,48.50
2018-07-27T09:44:15.539Z,48.40
2018-07-27T09:45:19.593Z,48.30
2018-07-27T09:46:23.697Z,48.30
2018-07-27T09:47:27.776Z,48.20
2018-07-27T09:48:31.879Z,48.00
2018-07-27T09:49:35.973Z,47.90
2018-07-27T09:50:40.339Z,47.80
2018-07-27T09:51:45.023Z,47.50
2018-07-27T09:52:49.150Z,47.40
2018-07-27T09:53:53.630Z,47.20
2018-07-27T09:54:57.668Z,47.00
2018-07-27T09:56:01.992Z,46.90
2018-07-27T09:57:06.463Z,46.50
2018-07-27T09:58:10.758Z,46.40
2018-07-27T09:59:14.862Z,46.10
2018-07-27T10:00:24.322Z,46.00
2018-07-27T10:01:29.464Z,46.60
2018-07-27T10:02:34.085Z,46.00
2018-07-27T10:03:38.743Z,46.00
2018-07-27T10:04:42.813Z,45.90
2018-07-27T10:05:47.051Z,45.60
2018-07-27T10:06:51.316Z,45.60
2018-07-27T10:08:58.958Z,45.10
2018-07-27T10:10:03.353Z,45.00
2018-07-27T10:11:07.447Z,44.90
2018-07-27T10:13:15.073Z,44.60
2018-07-27T10:14:19.280Z,45.10
2018-07-27T10:15:23.485Z,44.50
2018-07-27T10:16:27.512Z,44.50
2018-07-27T10:17:31.662Z,44.40
2018-07-27T10:18:35.736Z,44.50
2018-07-27T10:19:39.854Z,44.50
2018-07-27T10:20:43.902Z,44.60
2018-07-27T10:21:47.949Z,44.60
2018-07-27T10:22:52.121Z,44.60
2018-07-27T10:23:56.462Z,44.70
2018-07-27T10:25:00.765Z,44.70
2018-07-27T10:26:04.976Z,44.70
2018-07-27T10:27:09.048Z,44.70
2018-07-27T10:28:13.087Z,44.20
2018-07-27T10:29:17.158Z,44.00
2018-07-27T10:31:24.950Z,43.70
2018-07-27T10:32:28.992Z,43.50
2018-07-27T10:33:33.233Z,43.30
2018-07-27T10:34:37.324Z,42.90
2018-07-27T10:36:45.012Z,42.70
2018-07-27T10:37:49.154Z,42.50
2018-07-27T10:38:53.241Z,42.40
2018-07-27T10:39:57.379Z,42.00
2018-07-27T10:41:01.436Z,41.80
2018-07-27T10:42:05.751Z,41.60
2018-07-27T10:43:09.866Z,41.40
2018-07-27T10:44:13.906Z,41.00
2018-07-27T10:45:17.990Z,40.70
2018-07-27T10:46:22.022Z,40.50
2018-07-27T10:47:26.097Z,40.40
2018-07-27T10:48:30.144Z,40.20
2018-07-27T10:49:34.452Z,39.80
2018-07-27T10:50:38.517Z,39.60
2018-07-27T10:51:42.613Z,39.30
2018-07-27T10:52:46.696Z,38.90
2018-07-27T10:53:50.794Z,38.50
2018-07-27T10:54:54.828Z,38.10
2018-07-27T10:55:58.927Z,37.70
2018-07-27T10:57:03.043Z,37.30
2018-07-27T10:58:07.172Z,37.20
2018-07-27T10:59:11.264Z,37.10
2018-07-27T11:00:16.159Z,36.90
2018-07-27T11:01:20.256Z,36.70
2018-07-27T11:02:24.426Z,36.50
2018-07-27T11:03:28.491Z,36.20
2018-07-27T11:04:32.594Z,36.10
2018-07-27T11:05:36.723Z,35.80
2018-07-27T11:06:40.799Z,35.70
2018-07-27T11:07:44.876Z,35.60
2018-07-27T11:08:49.009Z,35.40
2018-07-27T11:10:56.773Z,35.70
2018-07-27T11:12:00.876Z,34.80
2018-07-27T11:13:04.934Z,34.50
2018-07-27T11:14:08.996Z,34.30
2018-07-27T11:15:13.084Z,34.00
2018-07-27T11:16:17.239Z,34.00
2018-07-27T11:17:21.319Z,33.90
2018-07-27T11:18:25.326Z,33.80
2018-07-27T11:19:29.298Z,33.70
2018-07-27T11:20:33.365Z,33.80
2018-07-27T11:21:37.454Z,33.70
2018-07-27T11:22:41.652Z,33.60
2018-07-27T11:24:49.458Z,33.40
2018-07-27T11:25:53.486Z,33.30
2018-07-27T11:26:57.710Z,33.10
2018-07-27T11:28:01.750Z,33.10
2018-07-27T11:29:05.863Z,32.90
2018-07-27T11:30:09.936Z,33.50
2018-07-27T11:31:14.031Z,32.70
2018-07-27T11:32:18.145Z,32.40
2018-07-27T11:33:22.355Z,32.20
2018-07-27T11:34:26.565Z,32.30
2018-07-27T11:35:30.662Z,32.40
2018-07-27T11:36:34.739Z,32.30
2018-07-27T11:37:38.810Z,32.40
2018-07-27T11:38:42.862Z,32.30
2018-07-27T11:39:47.211Z,32.30
2018-07-27T11:40:51.342Z,33.00
2018-07-27T11:41:55.348Z,32.30
2018-07-27T11:42:59.416Z,32.40
2018-07-27T11:44:03.562Z,32.20
2018-07-27T11:45:07.659Z,32.30
2018-07-27T11:46:11.744Z,32.20
2018-07-27T11:47:15.856Z,32.00
2018-07-27T11:48:19.924Z,32.00
2018-07-27T11:49:24.046Z,31.60
2018-07-27T11:50:28.085Z,31.10
2018-07-27T11:51:32.172Z,30.80
2018-07-27T11:52:36.264Z,30.50
2018-07-27T11:53:40.273Z,30.30
2018-07-27T11:54:44.486Z,30.20
2018-07-27T11:55:48.588Z,30.30
2018-07-27T11:56:52.693Z,30.40
2018-07-27T11:57:56.766Z,30.10
2018-07-27T11:59:00.838Z,30.00
2018-07-27T12:01:08.573Z,29.90
2018-07-27T12:02:13.509Z,29.90
2018-07-27T12:03:17.521Z,29.80
2018-07-27T12:04:21.596Z,29.60
2018-07-27T12:05:25.841Z,29.60
2018-07-27T12:06:29.958Z,29.50
2018-07-27T12:07:34.097Z,29.40
2018-07-27T12:08:38.269Z,29.40
2018-07-27T12:09:42.459Z,29.30
2018-07-27T12:10:46.511Z,29.20
2018-07-27T12:11:50.610Z,29.20
2018-07-27T12:12:54.656Z,29.30
2018-07-27T12:14:05.578Z,29.10
2018-07-27T12:15:09.770Z,28.90
2018-07-27T12:16:13.647Z,28.90
2018-07-27T12:17:17.941Z,28.80
2018-07-27T12:18:22.046Z,28.80
2018-07-27T12:19:26.142Z,28.80
2018-07-27T12:20:30.462Z,28.60
2018-07-27T12:21:34.757Z,28.50
2018-07-27T12:22:38.652Z,28.50
2018-07-27T12:23:42.839Z,28.40
2018-07-27T12:24:46.914Z,28.40
2018-07-27T12:25:51.113Z,28.40
2018-07-27T12:26:55.138Z,28.30
2018-07-27T12:27:59.218Z,28.20
2018-07-27T12:29:03.240Z,28.20
2018-07-27T12:30:07.327Z,28.20
2018-07-27T12:31:11.483Z,27.90
2018-07-27T12:32:15.539Z,28.20
2018-07-27T12:33:19.612Z,28.00
2018-07-27T12:34:23.680Z,27.90
2018-07-27T12:35:27.730Z,27.70
2018-07-27T12:36:31.817Z,27.70
2018-07-27T12:37:36.047Z,27.60
2018-07-27T12:38:40.034Z,27.40
2018-07-27T12:39:44.154Z,27.30
2018-07-27T12:40:48.252Z,27.70
2018-07-27T12:41:52.254Z,27.30
2018-07-27T12:42:56.303Z,27.70
2018-07-27T12:44:00.367Z,27.10
2018-07-27T12:45:04.762Z,27.60
2018-07-27T12:46:08.731Z,27.10
2018-07-27T12:47:12.759Z,27.10
2018-07-27T12:48:16.828Z,27.10
2018-07-27T12:49:21.812Z,27.10
2018-07-27T12:50:25.847Z,27.10
2018-07-27T12:51:29.947Z,27.10
2018-07-27T12:52:34.012Z,27.10
2018-07-27T12:53:38.117Z,27.20
2018-07-27T12:54:42.225Z,27.10
2018-07-27T12:55:46.300Z,27.30
2018-07-27T12:56:50.349Z,27.20
2018-07-27T12:57:54.509Z,27.10
2018-07-27T12:58:58.538Z,27.70
2018-07-27T13:00:02.596Z,27.10
2018-07-27T13:01:07.259Z,27.10
2018-07-27T13:02:11.292Z,27.20
2018-07-27T13:03:15.341Z,27.10
2018-07-27T13:04:19.493Z,27.00
2018-07-27T13:05:23.526Z,27.00
2018-07-27T13:06:27.636Z,27.10
2018-07-27T13:07:31.642Z,27.00
2018-07-27T13:08:35.759Z,27.00
2018-07-27T13:09:40.105Z,26.90
2018-07-27T13:10:44.255Z,27.10
2018-07-27T13:11:48.346Z,27.10
2018-07-27T13:12:52.370Z,27.00
2018-07-27T13:13:56.773Z,27.00
2018-07-27T13:15:00.900Z,26.70
2018-07-27T13:16:05.479Z,26.70
2018-07-27T13:17:09.586Z,26.70
2018-07-27T13:18:13.698Z,26.70
2018-07-27T13:19:17.766Z,26.60
2018-07-27T13:20:21.859Z,26.60
2018-07-27T13:21:26.059Z,26.70
2018-07-27T13:22:30.305Z,26.60
2018-07-27T13:23:34.300Z,26.50
2018-07-27T13:25:03.438Z,26.40
2018-07-27T13:25:46.314Z,26.40
2018-07-27T13:26:50.545Z,26.50
2018-07-27T13:27:54.588Z,26.40
2018-07-27T13:28:58.831Z,26.40
2018-07-27T13:30:02.926Z,26.30
2018-07-27T13:31:07.556Z,26.20
2018-07-27T13:32:11.694Z,26.30
2018-07-27T13:33:15.887Z,26.20
2018-07-27T13:36:45.440Z,26.70
2018-07-27T13:37:49.576Z,26.20
2018-07-27T13:38:53.619Z,26.10
2018-07-27T13:39:59.112Z,26.00
2018-07-27T13:41:03.419Z,25.80
2018-07-27T13:42:08.356Z,25.90
2018-07-27T13:43:12.372Z,25.90
2018-07-27T13:44:16.915Z,25.90
2018-07-27T13:45:20.920Z,25.60
2018-07-27T13:46:24.949Z,25.50
2018-07-27T13:47:29.170Z,25.40
2018-07-27T13:48:33.188Z,25.40
2018-07-27T13:49:37.343Z,25.50
2018-07-27T13:50:41.438Z,25.50
2018-07-27T13:51:45.481Z,25.60
2018-07-27T13:52:49.542Z,25.60
2018-07-27T13:53:53.716Z,25.70
2018-07-27T13:54:57.935Z,25.70
2018-07-27T13:56:02.020Z,25.60
2018-07-27T13:57:06.121Z,25.60
2018-07-27T13:59:13.863Z,25.70
2018-07-27T14:00:17.936Z,25.70
2018-07-27T14:01:22.200Z,25.70
2018-07-27T14:02:26.264Z,25.80
2018-07-27T14:03:30.355Z,25.90
2018-07-27T14:04:34.392Z,25.90
2018-07-27T14:05:38.520Z,25.90
2018-07-27T14:06:42.922Z,25.60
2018-07-27T14:07:46.987Z,25.70
2018-07-27T14:08:51.138Z,25.80
2018-07-27T14:09:55.230Z,25.70
2018-07-27T14:10:59.340Z,25.60
2018-07-27T14:12:03.534Z,25.50
2018-07-27T14:13:07.567Z,25.40
2018-07-27T14:15:15.656Z,25.30
2018-07-27T14:16:19.754Z,25.50
2018-07-27T14:17:23.858Z,25.50
2018-07-27T14:18:28.162Z,25.60
2018-07-27T14:19:32.183Z,25.60
2018-07-27T14:20:36.333Z,25.40
2018-07-27T14:21:40.794Z,25.40
2018-07-27T14:22:44.885Z,25.20
2018-07-27T14:23:49.103Z,25.30
2018-07-27T14:24:53.292Z,25.90
2018-07-27T14:25:57.314Z,25.30
2018-07-27T14:27:01.339Z,25.50
2018-07-27T14:28:05.740Z,25.60
2018-07-27T14:29:09.915Z,25.70